Time;durP1;ratioP1;P1;durP2;ratioP2;P2;SDS_P1;SDS_P2;PMS_P1;PMS_P2;Temp;Humidity;BMP_temperature;BMP_pressure;BME280_temperature;BME280_humidity;BME280_pressure;Samples;Min_cycle;Max_cycle;Signal;HPM_P1;HPM_P2
2022/03/02 00:01:42;;;;;;;22.63;11.75;;;;;;;;;;5032422;28;20497;-78
2022/03/02 00:04:08;;;;;;;61.08;19.95;;;;;;;;;;5014251;28;20044;-78
2022/03/02 00:06:33;;;;;;;54.95;20.60;;;;;;;;;;5015330;28;20045;-79
2022/03/02 00:09:00;;;;;;;51.13;19.90;;;;;;;;;;5032204;28;20095;-79
2022/03/02 00:11:27;;;;;;;70.80;24.67;;;;;;;;;;5032310;28;20057;-79
2022/03/02 00:13:54;;;;;;;82.72;24.30;;;;;;;;;;5032008;28;20037;-79
2022/03/02 00:16:22;;;;;;;75.72;23.20;;;;;;;;;;5014931;28;20549;-80
2022/03/02 00:18:48;;;;;;;67.63;24.05;;;;;;;;;;5013813;28;20424;-78
2022/03/02 00:21:14;;;;;;;67.43;23.08;;;;;;;;;;5032103;28;20049;-78
2022/03/02 00:23:40;;;;;;;63.00;21.10;;;;;;;;;;4997634;28;20092;-79
2022/03/02 00:26:06;;;;;;;65.53;21.38;;;;;;;;;;5030758;28;20038;-78
2022/03/02 00:28:32;;;;;;;63.40;20.55;;;;;;;;;;5030563;28;20166;-78
2022/03/02 00:30:57;;;;;;;56.47;20.50;;;;;;;;;;5013833;28;20602;-78
2022/03/02 00:33:23;;;;;;;47.42;19.50;;;;;;;;;;5013889;28;20060;-77
2022/03/02 00:35:49;;;;;;;72.38;25.05;;;;;;;;;;4997283;28;20068;-77
2022/03/02 00:38:15;;;;;;;92.60;33.65;;;;;;;;;;4997318;28;20505;-77
2022/03/02 00:40:41;;;;;;;57.83;22.00;;;;;;;;;;5031219;28;20049;-78
2022/03/02 00:43:07;;;;;;;60.10;22.15;;;;;;;;;;5013617;28;20042;-79
2022/03/02 00:45:33;;;;;;;67.85;20.40;;;;;;;;;;5031444;28;20052;-79
2022/03/02 00:48:02;;;;;;;47.95;19.38;;;;;;;;;;5029245;28;20073;-79
2022/03/02 00:50:28;;;;;;;70.25;20.30;;;;;;;;;;5013575;28;20120;-79
2022/03/02 00:52:54;;;;;;;59.42;20.08;;;;;;;;;;5031055;28;20490;-79
2022/03/02 00:55:20;;;;;;;47.45;18.23;;;;;;;;;;5029868;28;20052;-78
2022/03/02 00:57:46;;;;;;;60.22;18.90;;;;;;;;;;5013139;28;20069;-79
2022/03/02 01:00:12;;;;;;;32.30;16.50;;;;;;;;;;5013242;28;20153;-79
2022/03/02 01:02:38;;;;;;;58.67;19.05;;;;;;;;;;5030128;28;20045;-78
2022/03/02 01:05:05;;;;;;;32.47;16.35;;;;;;;;;;5030569;28;20045;-79
2022/03/02 01:07:31;;;;;;;29.95;15.40;;;;;;;;;;5030321;28;20524;-78
2022/03/02 01:09:57;;;;;;;41.33;16.02;;;;;;;;;;5013211;28;20457;-78
2022/03/02 01:12:23;;;;;;;38.38;16.25;;;;;;;;;;5029581;28;20781;-77
2022/03/02 01:14:50;;;;;;;45.17;16.73;;;;;;;;;;5030295;28;20493;-78
2022/03/02 01:17:16;;;;;;;42.63;16.42;;;;;;;;;;5029464;28;20426;-78
2022/03/02 01:19:42;;;;;;;47.00;18.30;;;;;;;;;;5012827;28;20128;-80
2022/03/02 01:22:08;;;;;;;55.20;18.75;;;;;;;;;;5030908;28;20049;-80
2022/03/02 01:24:33;;;;;;;38.47;17.63;;;;;;;;;;5013148;28;20029;-79
2022/03/02 01:27:01;;;;;;;37.65;18.25;;;;;;;;;;5012986;28;20107;-79
2022/03/02 01:29:28;;;;;;;37.05;15.95;;;;;;;;;;5012801;28;20424;-76
2022/03/02 01:31:55;;;;;;;22.70;10.23;;;;;;;;;;5012623;28;20116;-78
2022/03/02 01:34:21;;;;;;;37.60;14.48;;;;;;;;;;5030362;28;20069;-78
2022/03/02 01:36:47;;;;;;;29.83;12.38;;;;;;;;;;5012408;28;20056;-78
2022/03/02 01:39:13;;;;;;;43.75;13.23;;;;;;;;;;5030370;28;20037;-77
2022/03/02 01:41:39;;;;;;;28.05;12.35;;;;;;;;;;5030397;28;20105;-78
2022/03/02 01:44:05;;;;;;;30.33;13.85;;;;;;;;;;5012495;28;20199;-77
2022/03/02 01:46:31;;;;;;;34.65;12.90;;;;;;;;;;5030514;28;20675;-78
2022/03/02 01:48:57;;;;;;;30.30;14.57;;;;;;;;;;5029072;28;20041;-79
2022/03/02 01:51:23;;;;;;;37.95;15.60;;;;;;;;;;5012649;28;20041;-79
2022/03/02 01:53:49;;;;;;;34.13;15.35;;;;;;;;;;4995957;28;20525;-78
2022/03/02 01:56:15;;;;;;;33.70;14.25;;;;;;;;;;4996018;28;20048;-77
2022/03/02 01:58:41;;;;;;;16.58;8.98;;;;;;;;;;5012043;28;20052;-79
2022/03/02 02:01:07;;;;;;;26.95;12.23;;;;;;;;;;5012405;28;20049;-79
2022/03/02 02:03:33;;;;;;;28.65;13.30;;;;;;;;;;4996350;28;20639;-78
2022/03/02 02:05:59;;;;;;;27.33;14.77;;;;;;;;;;5012362;28;20041;-79
2022/03/02 02:08:25;;;;;;;37.40;15.50;;;;;;;;;;5012447;28;20091;-79
2022/03/02 02:10:52;;;;;;;32.92;15.82;;;;;;;;;;4995947;28;20111;-78
2022/03/02 02:13:18;;;;;;;22.00;13.20;;;;;;;;;;4996237;28;20045;-79
2022/03/02 02:15:44;;;;;;;25.73;12.68;;;;;;;;;;5012520;28;20049;-80
2022/03/02 02:18:10;;;;;;;34.90;17.33;;;;;;;;;;5012649;28;20048;-80
2022/03/02 02:20:37;;;;;;;45.90;18.50;;;;;;;;;;5012685;28;20053;-80
2022/03/02 02:23:03;;;;;;;39.53;17.45;;;;;;;;;;4996191;28;20049;-79
2022/03/02 02:25:29;;;;;;;40.80;17.27;;;;;;;;;;5029045;28;20073;-79
2022/03/02 02:27:55;;;;;;;32.25;16.60;;;;;;;;;;5011560;28;20045;-80
2022/03/02 02:30:21;;;;;;;42.33;15.88;;;;;;;;;;5010291;28;20042;-78
2022/03/02 02:32:47;;;;;;;31.27;14.50;;;;;;;;;;5025993;28;20086;-78
2022/03/02 02:35:13;;;;;;;32.85;11.75;;;;;;;;;;5029198;28;20069;-78
2022/03/02 02:37:39;;;;;;;22.95;12.20;;;;;;;;;;4996462;28;20041;-78
2022/03/02 02:40:09;;;;;;;27.98;12.07;;;;;;;;;;5012151;28;20061;-79
2022/03/02 02:42:35;;;;;;;21.57;12.03;;;;;;;;;;5030416;28;20048;-77
2022/03/02 02:45:01;;;;;;;26.98;13.77;;;;;;;;;;5012462;28;20045;-77
2022/03/02 02:47:28;;;;;;;38.50;17.30;;;;;;;;;;5012523;28;20037;-78
2022/03/02 02:49:54;;;;;;;26.27;13.32;;;;;;;;;;5011582;28;20417;-76
2022/03/02 02:52:20;;;;;;;34.22;16.45;;;;;;;;;;5012257;28;20046;-78
2022/03/02 02:54:48;;;;;;;35.85;14.70;;;;;;;;;;5030017;28;20125;-80
2022/03/02 02:57:14;;;;;;;30.25;15.88;;;;;;;;;;5029939;28;20045;-78
2022/03/02 02:59:39;;;;;;;25.67;12.95;;;;;;;;;;5012451;28;20041;-79
2022/03/02 03:02:05;;;;;;;19.27;11.55;;;;;;;;;;5012155;28;20053;-78
2022/03/02 03:04:32;;;;;;;24.80;9.00;;;;;;;;;;5012319;28;20125;-79
2022/03/02 03:06:58;;;;;;;15.43;9.75;;;;;;;;;;5015653;28;20044;-81
2022/03/02 03:09:24;;;;;;;25.80;11.30;;;;;;;;;;5020705;28;20037;-80
2022/03/02 03:11:50;;;;;;;25.05;13.20;;;;;;;;;;5041008;28;20056;-82
2022/03/02 03:14:16;;;;;;;34.55;10.13;;;;;;;;;;5040084;28;20096;-82
2022/03/02 03:16:42;;;;;;;16.98;10.98;;;;;;;;;;5039888;28;20061;-82
2022/03/02 03:19:08;;;;;;;25.33;10.70;;;;;;;;;;5022440;28;20057;-80
2022/03/02 03:21:34;;;;;;;25.33;11.50;;;;;;;;;;5034999;28;20139;-79
2022/03/02 03:24:02;;;;;;;14.40;7.28;;;;;;;;;;5034180;28;20045;-81
2022/03/02 03:26:28;;;;;;;19.75;9.25;;;;;;;;;;4999784;28;20410;-78
2022/03/02 03:28:55;;;;;;;17.92;11.60;;;;;;;;;;5015364;28;20069;-79
2022/03/02 03:31:21;;;;;;;15.00;8.57;;;;;;;;;;5033221;28;20123;-77
2022/03/02 03:33:47;;;;;;;17.70;9.65;;;;;;;;;;5032590;28;20049;-77
2022/03/02 03:36:13;;;;;;;10.40;6.43;;;;;;;;;;5014642;28;20124;-77
2022/03/02 03:38:39;;;;;;;19.23;8.50;;;;;;;;;;5014713;28;20527;-77
2022/03/02 03:41:05;;;;;;;20.15;10.38;;;;;;;;;;5032179;28;20057;-77
2022/03/02 03:43:33;;;;;;;5.68;4.50;;;;;;;;;;5015029;28;20037;-77
2022/03/02 03:45:58;;;;;;;30.95;13.15;;;;;;;;;;4998193;28;20509;-77
2022/03/02 03:48:24;;;;;;;28.17;13.55;;;;;;;;;;5031694;28;20065;-77
2022/03/02 03:50:51;;;;;;;14.95;10.23;;;;;;;;;;5032871;28;20042;-82
2022/03/02 03:53:18;;;;;;;18.77;9.35;;;;;;;;;;5015069;28;20037;-80
2022/03/02 03:55:43;;;;;;;28.10;11.82;;;;;;;;;;5032528;28;20045;-77
2022/03/02 03:58:10;;;;;;;22.58;12.63;;;;;;;;;;5014741;28;20041;-78
2022/03/02 04:00:36;;;;;;;17.35;11.15;;;;;;;;;;5031993;28;20057;-78
2022/03/02 04:03:01;;;;;;;24.88;12.13;;;;;;;;;;5008406;28;20042;-78
2022/03/02 04:05:27;;;;;;;26.95;11.60;;;;;;;;;;4997614;28;20060;-78
2022/03/02 04:07:53;;;;;;;23.20;10.82;;;;;;;;;;5012972;28;20497;-78
2022/03/02 04:10:19;;;;;;;10.38;8.57;;;;;;;;;;5019386;28;20049;-77
2022/03/02 04:12:47;;;;;;;24.35;13.15;;;;;;;;;;4982974;28;20049;-76
2022/03/02 04:15:13;;;;;;;31.45;14.02;;;;;;;;;;5030962;28;20041;-76
2022/03/02 04:17:39;;;;;;;26.10;14.13;;;;;;;;;;4998334;28;20080;-76
2022/03/02 04:20:05;;;;;;;21.27;9.48;;;;;;;;;;4994546;28;20078;-77
2022/03/02 04:22:34;;;;;;;25.13;13.95;;;;;;;;;;4992313;28;20552;-77
2022/03/02 04:25:00;;;;;;;13.20;8.77;;;;;;;;;;4991722;28;20038;-77
2022/03/02 04:27:25;;;;;;;17.80;11.60;;;;;;;;;;4992194;28;20477;-75
2022/03/02 04:29:51;;;;;;;19.77;10.70;;;;;;;;;;4993603;28;20065;-78
2022/03/02 04:32:17;;;;;;;12.48;8.68;;;;;;;;;;4974429;28;20109;-76
2022/03/02 04:34:43;;;;;;;18.58;9.30;;;;;;;;;;4991676;28;20042;-76
2022/03/02 04:37:09;;;;;;;12.15;8.32;;;;;;;;;;5023920;28;20057;-76
2022/03/02 04:39:35;;;;;;;9.30;5.55;;;;;;;;;;5030719;28;20107;-78
2022/03/02 04:42:01;;;;;;;11.95;6.07;;;;;;;;;;4996791;28;20140;-76
2022/03/02 04:44:27;;;;;;;22.40;11.63;;;;;;;;;;5030884;28;20042;-75
2022/03/02 04:46:53;;;;;;;26.20;12.30;;;;;;;;;;5015495;28;20042;-75
2022/03/02 04:49:19;;;;;;;17.50;7.95;;;;;;;;;;4993525;28;20049;-75
2022/03/02 04:51:46;;;;;;;11.77;6.55;;;;;;;;;;4997398;28;20065;-75
2022/03/02 04:55:05;;;;;;;14.63;9.07;;;;;;;;;;4973877;28;20038;-75
2022/03/02 04:56:58;;;;;;;22.45;12.10;;;;;;;;;;4973574;28;20054;-75
2022/03/02 04:59:24;;;;;;;23.08;10.70;;;;;;;;;;4991187;28;20049;-74
2022/03/02 05:01:50;;;;;;;16.70;8.77;;;;;;;;;;5004187;28;20433;-74
2022/03/02 05:04:16;;;;;;;39.78;13.88;;;;;;;;;;5010372;28;20038;-76
2022/03/02 05:06:42;;;;;;;27.02;14.13;;;;;;;;;;5009644;28;20139;-76
